sensor_id;sensor_type;location;lat;lon;timestamp;pressure;altitude;pressure_sealevel;temperature;humidity
27685;BME280;46113;50.130;8.526;2023-07-13T00:02:11;98954.22;;;14.22;54.44
27685;BME280;46113;50.130;8.526;2023-07-13T00:04:39;98951.47;;;13.99;54.62
27685;BME280;46113;50.130;8.526;2023-07-13T00:07:09;98958.19;;;14.04;54.31
27685;BME280;46113;50.130;8.526;2023-07-13T00:09:42;98962.66;;;14.04;54.37
27685;BME280;46113;50.130;8.526;2023-07-13T00:12:23;98961.91;;;14.02;54.71
27685;BME280;46113;50.130;8.526;2023-07-13T00:14:50;98971.94;;;13.98;54.07
27685;BME280;46113;50.130;8.526;2023-07-13T00:17:17;98979.94;;;13.74;55.32
27685;BME280;46113;50.130;8.526;2023-07-13T00:19:44;98982.09;;;13.69;55.74
27685;BME280;46113;50.130;8.526;2023-07-13T00:22:12;98980.06;;;13.72;54.96
27685;BME280;46113;50.130;8.526;2023-07-13T00:24:38;98976.13;;;13.42;55.76
27685;BME280;46113;50.130;8.526;2023-07-13T00:27:09;98976.47;;;13.49;55.49
27685;BME280;46113;50.130;8.526;2023-07-13T00:29:36;98973.31;;;13.44;55.64
27685;BME280;46113;50.130;8.526;2023-07-13T00:32:07;98970.47;;;13.58;55.71
27685;BME280;46113;50.130;8.526;2023-07-13T00:34:38;98976.53;;;13.60;55.53
27685;BME280;46113;50.130;8.526;2023-07-13T00:37:06;98976.03;;;13.55;55.38
27685;BME280;46113;50.130;8.526;2023-07-13T00:39:38;98988.25;;;13.33;55.74
27685;BME280;46113;50.130;8.526;2023-07-13T00:42:06;98993.66;;;13.32;56.08
27685;BME280;46113;50.130;8.526;2023-07-13T00:44:33;98994.16;;;13.37;55.86
27685;BME280;46113;50.130;8.526;2023-07-13T00:47:00;98992.91;;;13.18;55.64
27685;BME280;46113;50.130;8.526;2023-07-13T00:49:29;98994.03;;;13.27;55.34
27685;BME280;46113;50.130;8.526;2023-07-13T00:52:06;98998.75;;;13.35;55.66
27685;BME280;46113;50.130;8.526;2023-07-13T00:54:37;98996.22;;;13.33;55.61
27685;BME280;46113;50.130;8.526;2023-07-13T00:57:07;98988.34;;;13.32;55.97
27685;BME280;46113;50.130;8.526;2023-07-13T00:59:41;98994.19;;;12.99;56.70
27685;BME280;46113;50.130;8.526;2023-07-13T01:02:10;98984.53;;;13.11;56.51
27685;BME280;46113;50.130;8.526;2023-07-13T01:04:37;98984.53;;;13.11;56.32
27685;BME280;46113;50.130;8.526;2023-07-13T01:07:06;98988.97;;;13.11;56.17
27685;BME280;46113;50.130;8.526;2023-07-13T01:09:33;98981.53;;;13.03;56.38
27685;BME280;46113;50.130;8.526;2023-07-13T01:12:00;98987.09;;;13.00;56.07
27685;BME280;46113;50.130;8.526;2023-07-13T01:14:29;98993.41;;;12.73;57.44
27685;BME280;46113;50.130;8.526;2023-07-13T01:16:56;98989.34;;;12.93;56.93
27685;BME280;46113;50.130;8.526;2023-07-13T01:22:14;98997.75;;;12.87;57.03
27685;BME280;46113;50.130;8.526;2023-07-13T01:24:44;98993.53;;;12.58;57.55
27685;BME280;46113;50.130;8.526;2023-07-13T01:27:17;99004.56;;;12.65;58.01
27685;BME280;46113;50.130;8.526;2023-07-13T01:29:48;99002.56;;;12.69;57.72
27685;BME280;46113;50.130;8.526;2023-07-13T01:32:23;99007.94;;;12.80;57.48
27685;BME280;46113;50.130;8.526;2023-07-13T01:35:02;98999.03;;;12.81;57.43
27685;BME280;46113;50.130;8.526;2023-07-13T01:37:34;99010.69;;;12.79;57.37
27685;BME280;46113;50.130;8.526;2023-07-13T01:40:04;99009.31;;;12.73;57.24
27685;BME280;46113;50.130;8.526;2023-07-13T01:42:34;99011.59;;;12.66;57.43
27685;BME280;46113;50.130;8.526;2023-07-13T01:45:05;99014.34;;;12.65;57.35
27685;BME280;46113;50.130;8.526;2023-07-13T01:47:32;99006.63;;;12.36;58.65
27685;BME280;46113;50.130;8.526;2023-07-13T01:50:03;99005.66;;;12.50;58.26
27685;BME280;46113;50.130;8.526;2023-07-13T01:52:38;99004.28;;;12.44;58.73
27685;BME280;46113;50.130;8.526;2023-07-13T01:55:08;98998.84;;;12.45;58.62
27685;BME280;46113;50.130;8.526;2023-07-13T01:57:37;99002.56;;;12.30;58.82
27685;BME280;46113;50.130;8.526;2023-07-13T02:00:11;99012.56;;;12.39;58.37
27685;BME280;46113;50.130;8.526;2023-07-13T02:02:44;99014.91;;;12.31;58.75
27685;BME280;46113;50.130;8.526;2023-07-13T02:05:17;99013.31;;;12.28;58.16
27685;BME280;46113;50.130;8.526;2023-07-13T02:07:47;99007.25;;;12.39;58.12
27685;BME280;46113;50.130;8.526;2023-07-13T02:10:16;99011.94;;;12.23;58.76
27685;BME280;46113;50.130;8.526;2023-07-13T02:12:43;99011.69;;;12.13;59.10
27685;BME280;46113;50.130;8.526;2023-07-13T02:15:11;99015.19;;;12.13;59.12
27685;BME280;46113;50.130;8.526;2023-07-13T02:17:38;99020.88;;;11.94;59.94
27685;BME280;46113;50.130;8.526;2023-07-13T02:20:08;99022.53;;;12.23;58.73
27685;BME280;46113;50.130;8.526;2023-07-13T02:22:36;99022.09;;;12.16;58.94
27685;BME280;46113;50.130;8.526;2023-07-13T02:25:03;99027.94;;;12.08;59.15
27685;BME280;46113;50.130;8.526;2023-07-13T02:27:30;99037.47;;;12.11;58.46
27685;BME280;46113;50.130;8.526;2023-07-13T02:30:00;99039.06;;;12.26;58.62
27685;BME280;46113;50.130;8.526;2023-07-13T02:32:27;99038.88;;;12.29;58.63
27685;BME280;46113;50.130;8.526;2023-07-13T02:34:54;99048.19;;;12.22;58.91
27685;BME280;46113;50.130;8.526;2023-07-13T02:37:21;99047.47;;;12.20;58.59
27685;BME280;46113;50.130;8.526;2023-07-13T02:39:51;99052.00;;;12.18;58.15
27685;BME280;46113;50.130;8.526;2023-07-13T02:42:23;99050.34;;;12.02;58.23
27685;BME280;46113;50.130;8.526;2023-07-13T02:44:53;99051.53;;;11.98;58.14
27685;BME280;46113;50.130;8.526;2023-07-13T02:47:20;99051.59;;;12.11;58.31
27685;BME280;46113;50.130;8.526;2023-07-13T02:49:52;99047.47;;;12.20;57.73
27685;BME280;46113;50.130;8.526;2023-07-13T02:52:22;99053.50;;;12.22;57.98
27685;BME280;46113;50.130;8.526;2023-07-13T02:54:58;99052.22;;;12.15;58.33
27685;BME280;46113;50.130;8.526;2023-07-13T02:57:30;99056.22;;;12.07;58.60
27685;BME280;46113;50.130;8.526;2023-07-13T03:00:04;99057.94;;;12.09;58.53
27685;BME280;46113;50.130;8.526;2023-07-13T03:02:42;99052.75;;;12.07;58.58
27685;BME280;46113;50.130;8.526;2023-07-13T03:05:11;99056.53;;;12.03;58.41
27685;BME280;46113;50.130;8.526;2023-07-13T03:07:42;99056.72;;;12.00;58.57
27685;BME280;46113;50.130;8.526;2023-07-13T03:10:11;99063.03;;;11.84;59.36
27685;BME280;46113;50.130;8.526;2023-07-13T03:12:47;99061.38;;;11.96;58.86
27685;BME280;46113;50.130;8.526;2023-07-13T03:15:22;99067.53;;;11.97;58.77
27685;BME280;46113;50.130;8.526;2023-07-13T03:17:56;99063.72;;;11.88;59.15
27685;BME280;46113;50.130;8.526;2023-07-13T03:20:26;99069.25;;;11.70;59.09
27685;BME280;46113;50.130;8.526;2023-07-13T03:23:18;99075.31;;;11.72;59.57
27685;BME280;46113;50.130;8.526;2023-07-13T03:25:48;99061.06;;;11.88;59.49
27685;BME280;46113;50.130;8.526;2023-07-13T03:28:55;99074.66;;;11.68;59.73
27685;BME280;46113;50.130;8.526;2023-07-13T03:31:50;99073.47;;;11.60;59.55
27685;BME280;46113;50.130;8.526;2023-07-13T04:02:56;99095.72;;;12.12;59.55
27685;BME280;46113;50.130;8.526;2023-07-13T04:05:23;99104.84;;;12.21;59.45
27685;BME280;46113;50.130;8.526;2023-07-13T04:07:50;99098.03;;;12.17;59.90
27685;BME280;46113;50.130;8.526;2023-07-13T04:10:17;99099.56;;;12.34;59.62
27685;BME280;46113;50.130;8.526;2023-07-13T04:12:44;99106.69;;;12.46;58.50
27685;BME280;46113;50.130;8.526;2023-07-13T04:15:11;99110.91;;;12.36;58.85
27685;BME280;46113;50.130;8.526;2023-07-13T04:17:38;99106.25;;;12.40;58.32
27685;BME280;46113;50.130;8.526;2023-07-13T04:20:05;99116.22;;;12.23;58.80
27685;BME280;46113;50.130;8.526;2023-07-13T04:22:32;99117.00;;;12.11;59.51
27685;BME280;46113;50.130;8.526;2023-07-13T04:24:59;99111.28;;;12.17;59.88
27685;BME280;46113;50.130;8.526;2023-07-13T04:27:25;99111.22;;;12.31;59.29
27685;BME280;46113;50.130;8.526;2023-07-13T04:29:52;99111.97;;;12.20;58.79
27685;BME280;46113;50.130;8.526;2023-07-13T04:32:19;99119.19;;;12.31;59.10
27685;BME280;46113;50.130;8.526;2023-07-13T04:34:45;99117.59;;;12.42;58.65
27685;BME280;46113;50.130;8.526;2023-07-13T04:37:12;99131.50;;;12.58;58.38
27685;BME280;46113;50.130;8.526;2023-07-13T04:39:38;99128.03;;;12.84;57.72
27685;BME280;46113;50.130;8.526;2023-07-13T04:42:05;99120.78;;;12.99;57.11
27685;BME280;46113;50.130;8.526;2023-07-13T04:44:32;99133.41;;;13.21;56.68
27685;BME280;46113;50.130;8.526;2023-07-13T04:46:59;99129.13;;;13.32;56.28
27685;BME280;46113;50.130;8.526;2023-07-13T04:49:25;99128.44;;;13.54;56.04
27685;BME280;46113;50.130;8.526;2023-07-13T04:51:52;99124.19;;;13.51;55.38
27685;BME280;46113;50.130;8.526;2023-07-13T04:54:19;99125.13;;;13.63;54.97
27685;BME280;46113;50.130;8.526;2023-07-13T04:56:45;99125.16;;;13.75;54.10
27685;BME280;46113;50.130;8.526;2023-07-13T04:59:12;99135.78;;;13.88;54.16
27685;BME280;46113;50.130;8.526;2023-07-13T05:01:38;99142.38;;;13.82;53.68
27685;BME280;46113;50.130;8.526;2023-07-13T05:04:07;99144.88;;;13.97;53.46
27685;BME280;46113;50.130;8.526;2023-07-13T05:06:33;99133.78;;;14.27;53.16
27685;BME280;46113;50.130;8.526;2023-07-13T05:09:00;99128.13;;;14.32;52.13
27685;BME280;46113;50.130;8.526;2023-07-13T05:11:27;99131.03;;;14.40;52.15
27685;BME280;46113;50.130;8.526;2023-07-13T05:13:53;99143.09;;;14.80;51.36
27685;BME280;46113;50.130;8.526;2023-07-13T05:16:20;99137.84;;;14.56;51.69
27685;BME280;46113;50.130;8.526;2023-07-13T05:18:47;99123.78;;;15.01;50.80
27685;BME280;46113;50.130;8.526;2023-07-13T05:21:13;99128.00;;;15.04;50.56
27685;BME280;46113;50.130;8.526;2023-07-13T05:23:40;99122.94;;;15.12;50.33
27685;BME280;46113;50.130;8.526;2023-07-13T05:26:11;99133.16;;;15.40;49.83
27685;BME280;46113;50.130;8.526;2023-07-13T05:28:38;99130.78;;;15.81;49.02
27685;BME280;46113;50.130;8.526;2023-07-13T05:31:07;99132.00;;;15.76;48.75
27685;BME280;46113;50.130;8.526;2023-07-13T05:33:34;99127.28;;;16.13;48.54
27685;BME280;46113;50.130;8.526;2023-07-13T05:36:01;99133.56;;;16.45;47.07
27685;BME280;46113;50.130;8.526;2023-07-13T05:38:28;99127.66;;;16.41;46.88
27685;BME280;46113;50.130;8.526;2023-07-13T05:40:56;99145.41;;;16.31;46.67
27685;BME280;46113;50.130;8.526;2023-07-13T05:43:23;99132.72;;;16.65;46.44
27685;BME280;46113;50.130;8.526;2023-07-13T05:45:54;99127.91;;;16.59;46.26
27685;BME280;46113;50.130;8.526;2023-07-13T05:48:21;99135.66;;;16.84;45.00
27685;BME280;46113;50.130;8.526;2023-07-13T05:50:48;99135.13;;;17.21;44.17
27685;BME280;46113;50.130;8.526;2023-07-13T05:53:15;99129.53;;;17.44;43.69
27685;BME280;46113;50.130;8.526;2023-07-13T05:55:44;99135.88;;;17.33;43.84
27685;BME280;46113;50.130;8.526;2023-07-13T05:58:11;99131.03;;;17.68;43.23
27685;BME280;46113;50.130;8.526;2023-07-13T06:00:39;99131.41;;;17.43;42.78
27685;BME280;46113;50.130;8.526;2023-07-13T06:03:06;99137.88;;;17.51;41.80
27685;BME280;46113;50.130;8.526;2023-07-13T06:05:35;99138.09;;;18.28;41.48
27685;BME280;46113;50.130;8.526;2023-07-13T06:08:04;99146.44;;;18.55;39.75
27685;BME280;46113;50.130;8.526;2023-07-13T06:10:35;99139.47;;;19.48;38.43
27685;BME280;46113;50.130;8.526;2023-07-13T06:13:02;99138.28;;;19.32;38.63
27685;BME280;46113;50.130;8.526;2023-07-13T06:15:29;99143.88;;;19.01;38.42
27685;BME280;46113;50.130;8.526;2023-07-13T06:17:56;99139.25;;;19.41;36.70
27685;BME280;46113;50.130;8.526;2023-07-13T06:20:23;99137.94;;;20.72;36.61
27685;BME280;46113;50.130;8.526;2023-07-13T06:22:50;99146.00;;;21.07;34.52
27685;BME280;46113;50.130;8.526;2023-07-13T06:25:16;99143.34;;;21.42;34.16
27685;BME280;46113;50.130;8.526;2023-07-13T06:27:44;99141.34;;;22.20;34.06
27685;BME280;46113;50.130;8.526;2023-07-13T06:30:11;99138.59;;;22.79;32.45
27685;BME280;46113;50.130;8.526;2023-07-13T06:32:38;99144.69;;;22.39;32.76
27685;BME280;46113;50.130;8.526;2023-07-13T06:35:07;99147.72;;;22.53;31.21
27685;BME280;46113;50.130;8.526;2023-07-13T06:37:34;99139.97;;;22.00;32.55
27685;BME280;46113;50.130;8.526;2023-07-13T06:40:00;99136.66;;;21.54;32.58
27685;BME280;46113;50.130;8.526;2023-07-13T06:42:27;99142.16;;;22.29;32.16
27685;BME280;46113;50.130;8.526;2023-07-13T06:44:53;99150.41;;;22.03;32.47
27685;BME280;46113;50.130;8.526;2023-07-13T06:47:20;99153.44;;;22.58;32.67
27685;BME280;46113;50.130;8.526;2023-07-13T06:49:47;99148.56;;;22.61;31.61
27685;BME280;46113;50.130;8.526;2023-07-13T06:52:13;99158.00;;;23.71;31.52
27685;BME280;46113;50.130;8.526;2023-07-13T06:54:40;99161.66;;;23.46;30.18
27685;BME280;46113;50.130;8.526;2023-07-13T06:57:07;99158.16;;;23.37;31.57
27685;BME280;46113;50.130;8.526;2023-07-13T06:59:33;99164.34;;;22.98;29.75
27685;BME280;46113;50.130;8.526;2023-07-13T07:02:00;99160.56;;;23.96;29.01
27685;BME280;46113;50.130;8.526;2023-07-13T07:04:26;99158.94;;;24.71;29.24
27685;BME280;46113;50.130;8.526;2023-07-13T07:06:54;99165.53;;;24.54;28.07
27685;BME280;46113;50.130;8.526;2023-07-13T07:09:24;99164.84;;;25.05;27.54
27685;BME280;46113;50.130;8.526;2023-07-13T07:11:51;99165.81;;;24.36;27.27
27685;BME280;46113;50.130;8.526;2023-07-13T07:14:30;99175.31;;;24.31;27.49
27685;BME280;46113;50.130;8.526;2023-07-13T07:16:56;99171.03;;;24.61;28.46
27685;BME280;46113;50.130;8.526;2023-07-13T07:19:25;99167.84;;;24.95;27.22
27685;BME280;46113;50.130;8.526;2023-07-13T07:21:52;99170.81;;;25.46;26.23
27685;BME280;46113;50.130;8.526;2023-07-13T07:24:18;99169.25;;;25.21;27.12
27685;BME280;46113;50.130;8.526;2023-07-13T07:26:45;99169.28;;;24.44;27.45
27685;BME280;46113;50.130;8.526;2023-07-13T07:29:15;99164.31;;;24.56;27.21
27685;BME280;46113;50.130;8.526;2023-07-13T07:31:44;99169.00;;;24.78;27.15
27685;BME280;46113;50.130;8.526;2023-07-13T07:34:30;99171.13;;;25.73;26.72
27685;BME280;46113;50.130;8.526;2023-07-13T07:37:00;99163.78;;;26.82;24.96
27685;BME280;46113;50.130;8.526;2023-07-13T07:39:30;99176.06;;;26.28;24.98
27685;BME280;46113;50.130;8.526;2023-07-13T07:41:57;99171.47;;;27.98;24.26
27685;BME280;46113;50.130;8.526;2023-07-13T07:44:24;99166.47;;;28.36;23.84
27685;BME280;46113;50.130;8.526;2023-07-13T07:46:51;99171.00;;;27.88;23.82
27685;BME280;46113;50.130;8.526;2023-07-13T07:49:18;99171.28;;;28.20;23.13
27685;BME280;46113;50.130;8.526;2023-07-13T07:51:45;99164.16;;;28.93;21.87
27685;BME280;46113;50.130;8.526;2023-07-13T07:54:11;99163.59;;;26.84;23.58
27685;BME280;46113;50.130;8.526;2023-07-13T07:56:58;99168.66;;;27.22;24.05
27685;BME280;46113;50.130;8.526;2023-07-13T07:59:44;99162.88;;;27.95;22.76
27685;BME280;46113;50.130;8.526;2023-07-13T08:02:14;99169.56;;;27.92;23.89
27685;BME280;46113;50.130;8.526;2023-07-13T08:05:01;99182.78;;;28.90;23.13
27685;BME280;46113;50.130;8.526;2023-07-13T08:07:30;99176.72;;;28.47;22.90
27685;BME280;46113;50.130;8.526;2023-07-13T08:09:58;99164.34;;;29.19;22.47
27685;BME280;46113;50.130;8.526;2023-07-13T08:12:25;99168.13;;;28.98;22.82
27685;BME280;46113;50.130;8.526;2023-07-13T08:14:55;99171.34;;;29.40;21.20
27685;BME280;46113;50.130;8.526;2023-07-13T08:17:24;99169.59;;;29.07;22.66
27685;BME280;46113;50.130;8.526;2023-07-13T08:19:52;99159.88;;;30.16;20.83
27685;BME280;46113;50.130;8.526;2023-07-13T08:22:19;99165.22;;;29.97;20.98
27685;BME280;46113;50.130;8.526;2023-07-13T08:24:45;99154.41;;;30.16;20.10
27685;BME280;46113;50.130;8.526;2023-07-13T08:27:13;99155.47;;;30.08;20.19
27685;BME280;46113;50.130;8.526;2023-07-13T08:29:40;99171.47;;;27.07;22.84
27685;BME280;46113;50.130;8.526;2023-07-13T08:32:07;99159.31;;;29.09;21.80
27685;BME280;46113;50.130;8.526;2023-07-13T08:34:36;99158.59;;;29.41;21.57
27685;BME280;46113;50.130;8.526;2023-07-13T08:37:03;99163.00;;;30.71;20.32
27685;BME280;46113;50.130;8.526;2023-07-13T08:39:30;99155.66;;;31.46;19.39
27685;BME280;46113;50.130;8.526;2023-07-13T08:48:01;99154.38;;;31.79;19.12
27685;BME280;46113;50.130;8.526;2023-07-13T08:50:33;99158.53;;;33.32;17.99
27685;BME280;46113;50.130;8.526;2023-07-13T08:53:21;99157.41;;;30.33;20.03
27685;BME280;46113;50.130;8.526;2023-07-13T08:55:57;99151.31;;;30.06;20.36
27685;BME280;46113;50.130;8.526;2023-07-13T08:58:25;99153.06;;;28.95;21.41
27685;BME280;46113;50.130;8.526;2023-07-13T09:01:17;99154.47;;;29.70;20.50
27685;BME280;46113;50.130;8.526;2023-07-13T09:14:33;99140.47;;;31.81;18.51
27685;BME280;46113;50.130;8.526;2023-07-13T09:17:04;99148.53;;;30.70;18.69
27685;BME280;46113;50.130;8.526;2023-07-13T09:19:33;99149.66;;;30.62;20.29
27685;BME280;46113;50.130;8.526;2023-07-13T09:22:03;99143.75;;;31.90;18.52
27685;BME280;46113;50.130;8.526;2023-07-13T09:24:38;99142.19;;;31.94;18.46
27685;BME280;46113;50.130;8.526;2023-07-13T09:27:27;99136.59;;;31.89;18.40
27685;BME280;46113;50.130;8.526;2023-07-13T09:32:43;99148.91;;;28.32;20.72
27685;BME280;46113;50.130;8.526;2023-07-13T09:35:21;99155.44;;;25.68;24.12
27685;BME280;46113;50.130;8.526;2023-07-13T09:37:49;99149.25;;;25.52;24.63
27685;BME280;46113;50.130;8.526;2023-07-13T09:40:30;99157.69;;;26.23;23.90
27685;BME280;46113;50.130;8.526;2023-07-13T09:43:03;99151.53;;;26.58;23.86
27685;BME280;46113;50.130;8.526;2023-07-13T09:45:34;99150.19;;;26.47;23.56
27685;BME280;46113;50.130;8.526;2023-07-13T09:48:07;99153.31;;;26.00;23.99
27685;BME280;46113;50.130;8.526;2023-07-13T09:50:37;99154.47;;;26.13;23.77
27685;BME280;46113;50.130;8.526;2023-07-13T09:53:03;99148.47;;;26.39;23.78
27685;BME280;46113;50.130;8.526;2023-07-13T09:55:36;99158.34;;;25.15;25.03
27685;BME280;46113;50.130;8.526;2023-07-13T09:58:09;99152.34;;;26.08;23.66
27685;BME280;46113;50.130;8.526;2023-07-13T10:00:37;99143.25;;;25.94;24.41
27685;BME280;46113;50.130;8.526;2023-07-13T10:03:15;99149.66;;;25.19;25.09
27685;BME280;46113;50.130;8.526;2023-07-13T10:05:45;99145.28;;;24.26;25.81
27685;BME280;46113;50.130;8.526;2023-07-13T10:08:29;99158.47;;;24.68;26.11
27685;BME280;46113;50.130;8.526;2023-07-13T10:11:00;99157.88;;;23.96;26.32
27685;BME280;46113;50.130;8.526;2023-07-13T10:13:31;99155.06;;;23.49;26.71
27685;BME280;46113;50.130;8.526;2023-07-13T10:16:02;99158.72;;;24.19;26.02
27685;BME280;46113;50.130;8.526;2023-07-13T10:18:34;99153.97;;;24.37;26.51
27685;BME280;46113;50.130;8.526;2023-07-13T10:21:13;99153.31;;;24.58;25.37
27685;BME280;46113;50.130;8.526;2023-07-13T10:23:48;99144.50;;;24.79;25.79
27685;BME280;46113;50.130;8.526;2023-07-13T10:26:21;99143.22;;;23.90;25.58
27685;BME280;46113;50.130;8.526;2023-07-13T10:28:53;99156.16;;;24.41;26.44
27685;BME280;46113;50.130;8.526;2023-07-13T10:31:22;99156.59;;;24.30;26.11
27685;BME280;46113;50.130;8.526;2023-07-13T10:33:49;99150.50;;;23.89;26.55
27685;BME280;46113;50.130;8.526;2023-07-13T10:36:23;99148.13;;;24.86;25.66
27685;BME280;46113;50.130;8.526;2023-07-13T10:38:55;99150.72;;;24.65;26.11
27685;BME280;46113;50.130;8.526;2023-07-13T10:41:25;99145.78;;;24.30;25.63
27685;BME280;46113;50.130;8.526;2023-07-13T10:43:55;99149.72;;;24.42;25.71
27685;BME280;46113;50.130;8.526;2023-07-13T10:46:26;99138.88;;;24.04;25.51
27685;BME280;46113;50.130;8.526;2023-07-13T10:48:59;99145.72;;;24.15;25.95
27685;BME280;46113;50.130;8.526;2023-07-13T10:51:28;99152.34;;;24.12;25.92
27685;BME280;46113;50.130;8.526;2023-07-13T10:54:15;99153.78;;;24.62;27.01
27685;BME280;46113;50.130;8.526;2023-07-13T10:56:46;99154.44;;;24.02;26.12
27685;BME280;46113;50.130;8.526;2023-07-13T10:59:27;99146.22;;;23.95;25.72
27685;BME280;46113;50.130;8.526;2023-07-13T11:02:10;99143.63;;;24.25;25.27
27685;BME280;46113;50.130;8.526;2023-07-13T11:04:45;99150.31;;;23.59;26.48
27685;BME280;46113;50.130;8.526;2023-07-13T11:09:54;99138.41;;;24.00;25.67
27685;BME280;46113;50.130;8.526;2023-07-13T11:19:54;99148.19;;;24.25;25.55
27685;BME280;46113;50.130;8.526;2023-07-13T11:23:08;99136.56;;;24.01;25.96
27685;BME280;46113;50.130;8.526;2023-07-13T11:25:36;99137.91;;;23.73;25.97
27685;BME280;46113;50.130;8.526;2023-07-13T11:30:39;99136.06;;;24.20;25.95
27685;BME280;46113;50.130;8.526;2023-07-13T11:36:05;99132.91;;;24.17;25.17
27685;BME280;46113;50.130;8.526;2023-07-13T11:38:36;99140.03;;;24.10;26.16
27685;BME280;46113;50.130;8.526;2023-07-13T11:41:31;99144.38;;;24.34;26.19
27685;BME280;46113;50.130;8.526;2023-07-13T11:44:17;99138.44;;;23.69;26.34
27685;BME280;46113;50.130;8.526;2023-07-13T11:47:11;99134.88;;;23.68;26.32
27685;BME280;46113;50.130;8.526;2023-07-13T11:49:55;99138.22;;;24.02;26.30
27685;BME280;46113;50.130;8.526;2023-07-13T11:52:32;99128.88;;;24.13;25.65
27685;BME280;46113;50.130;8.526;2023-07-13T11:55:01;99131.22;;;23.92;24.95
27685;BME280;46113;50.130;8.526;2023-07-13T11:57:32;99137.59;;;24.38;25.12
27685;BME280;46113;50.130;8.526;2023-07-13T12:00:04;99140.03;;;23.78;25.85
27685;BME280;46113;50.130;8.526;2023-07-13T12:02:40;99137.47;;;23.13;25.61
27685;BME280;46113;50.130;8.526;2023-07-13T12:05:14;99134.81;;;23.05;26.57
27685;BME280;46113;50.130;8.526;2023-07-13T12:07:41;99136.03;;;22.94;26.33
27685;BME280;46113;50.130;8.526;2023-07-13T12:12:36;99118.63;;;23.05;26.62
27685;BME280;46113;50.130;8.526;2023-07-13T12:15:07;99136.94;;;23.18;27.30
27685;BME280;46113;50.130;8.526;2023-07-13T12:17:35;99125.44;;;23.40;27.01
27685;BME280;46113;50.130;8.526;2023-07-13T12:20:17;99136.22;;;23.40;26.64
27685;BME280;46113;50.130;8.526;2023-07-13T12:22:47;99148.16;;;22.98;26.96
27685;BME280;46113;50.130;8.526;2023-07-13T12:25:14;99140.53;;;23.10;27.33
27685;BME280;46113;50.130;8.526;2023-07-13T12:27:42;99150.88;;;22.90;27.41
27685;BME280;46113;50.130;8.526;2023-07-13T12:30:28;99163.97;;;23.01;27.07
27685;BME280;46113;50.130;8.526;2023-07-13T12:33:06;99151.25;;;23.35;27.36
27685;BME280;46113;50.130;8.526;2023-07-13T12:35:47;99157.25;;;23.05;28.09
27685;BME280;46113;50.130;8.526;2023-07-13T12:38:16;99152.63;;;23.31;27.37
27685;BME280;46113;50.130;8.526;2023-07-13T12:40:43;99160.59;;;23.24;27.52
27685;BME280;46113;50.130;8.526;2023-07-13T12:43:14;99143.72;;;23.62;27.60
27685;BME280;46113;50.130;8.526;2023-07-13T12:48:43;99154.38;;;23.55;27.15
27685;BME280;46113;50.130;8.526;2023-07-13T12:51:27;99157.09;;;24.10;27.18
27685;BME280;46113;50.130;8.526;2023-07-13T12:53:59;99158.13;;;23.46;27.44
27685;BME280;46113;50.130;8.526;2023-07-13T12:56:32;99158.13;;;23.77;26.67
27685;BME280;46113;50.130;8.526;2023-07-13T12:59:03;99163.69;;;23.44;26.73
27685;BME280;46113;50.130;8.526;2023-07-13T13:01:33;99144.53;;;23.62;26.97
27685;BME280;46113;50.130;8.526;2023-07-13T13:04:02;99149.75;;;23.96;26.00
27685;BME280;46113;50.130;8.526;2023-07-13T13:06:35;99157.56;;;23.82;26.75
27685;BME280;46113;50.130;8.526;2023-07-13T13:09:03;99141.22;;;23.52;26.25
27685;BME280;46113;50.130;8.526;2023-07-13T13:11:31;99145.41;;;23.86;26.15
27685;BME280;46113;50.130;8.526;2023-07-13T13:13:58;99144.50;;;23.71;26.26
27685;BME280;46113;50.130;8.526;2023-07-13T13:18:56;99151.63;;;23.32;26.03
27685;BME280;46113;50.130;8.526;2023-07-13T13:21:26;99162.41;;;23.15;27.03
27685;BME280;46113;50.130;8.526;2023-07-13T13:23:52;99158.53;;;23.18;26.47
27685;BME280;46113;50.130;8.526;2023-07-13T13:26:21;99155.56;;;23.52;26.23
27685;BME280;46113;50.130;8.526;2023-07-13T13:28:48;99151.84;;;23.53;26.81
27685;BME280;46113;50.130;8.526;2023-07-13T13:31:15;99156.84;;;23.97;25.90
27685;BME280;46113;50.130;8.526;2023-07-13T13:33:44;99158.09;;;24.32;25.98
27685;BME280;46113;50.130;8.526;2023-07-13T13:36:18;99156.78;;;24.28;25.92
27685;BME280;46113;50.130;8.526;2023-07-13T13:38:47;99160.75;;;23.86;25.78
27685;BME280;46113;50.130;8.526;2023-07-13T13:41:15;99163.59;;;23.61;25.90
27685;BME280;46113;50.130;8.526;2023-07-13T13:43:42;99174.03;;;23.64;26.20
27685;BME280;46113;50.130;8.526;2023-07-13T13:46:21;99174.63;;;23.83;26.17
27685;BME280;46113;50.130;8.526;2023-07-13T13:48:51;99167.16;;;23.13;26.31
27685;BME280;46113;50.130;8.526;2023-07-13T13:51:20;99167.59;;;23.73;27.00
27685;BME280;46113;50.130;8.526;2023-07-13T13:53:47;99168.66;;;23.15;26.57
27685;BME280;46113;50.130;8.526;2023-07-13T13:56:15;99167.72;;;23.80;26.53
27685;BME280;46113;50.130;8.526;2023-07-13T13:58:42;99179.50;;;22.99;26.61
27685;BME280;46113;50.130;8.526;2023-07-13T14:01:13;99173.41;;;23.05;27.06
27685;BME280;46113;50.130;8.526;2023-07-13T14:03:43;99169.88;;;23.05;26.59
27685;BME280;46113;50.130;8.526;2023-07-13T14:06:12;99170.81;;;23.20;26.92
27685;BME280;46113;50.130;8.526;2023-07-13T14:08:39;99170.50;;;23.32;27.14
27685;BME280;46113;50.130;8.526;2023-07-13T14:11:12;99172.34;;;23.31;26.37
27685;BME280;46113;50.130;8.526;2023-07-13T14:13:51;99170.69;;;23.93;26.88
27685;BME280;46113;50.130;8.526;2023-07-13T14:16:20;99172.94;;;23.82;26.49
27685;BME280;46113;50.130;8.526;2023-07-13T14:18:48;99165.31;;;23.62;26.16
27685;BME280;46113;50.130;8.526;2023-07-13T14:21:18;99178.44;;;23.25;26.77
27685;BME280;46113;50.130;8.526;2023-07-13T14:23:46;99168.94;;;23.37;26.81
27685;BME280;46113;50.130;8.526;2023-07-13T14:26:22;99180.09;;;23.18;26.86
27685;BME280;46113;50.130;8.526;2023-07-13T14:28:51;99181.19;;;22.92;26.89
27685;BME280;46113;50.130;8.526;2023-07-13T14:31:20;99185.63;;;22.68;27.51
27685;BME280;46113;50.130;8.526;2023-07-13T14:33:47;99184.19;;;23.13;27.60